NCAR-RAP Real-Time Weather Data

Output produced by METARs form (23 February 2020  02:32 UTC)
found at http://weather.rap.ucar.edu/surface/
 
KOMA 230152Z 18008KT 10SM FEW250 09/01 A2996 RMK AO2 SLP151 T00890006
KOMA 230052Z 19012KT 10SM FEW250 11/01 A2996 RMK AO2 SLP150 T01110006
KOMA 222352Z 20010KT 10SM FEW250 12/01 A2994 RMK AO2 SLP145 T01170006 10144 20089 55002
KOMA 222252Z 19014G21KT 10SM FEW250 13/01 A2993 RMK AO2 SLP140 T01330006
KOMA 222152Z 19015KT 10SM FEW250 14/01 A2993 RMK AO2 SLP140 T01390006
KOMA 222052Z 21015G21KT 10SM FEW250 14/00 A2995 RMK AO2 SLP146 T01390000 56030
KOMA 221952Z 19011KT 10SM FEW250 13/00 A2997 RMK AO2 SLP153 T01280000
KOMA 221852Z 18012KT 10SM FEW250 11/M01 A3000 RMK AO2 SLP165 T01111006
KOMA 221752Z 17012KT 10SM SCT250 09/M01 A3004 RMK AO2 SLP178 T00891011 10089 21039 58023
KOMA 221652Z 17012KT 10SM SCT250 06/M02 A3007 RMK AO2 SLP188 T00611017
KOMA 221552Z 19008KT 10SM SCT250 03/M03 A3010 RMK AO2 SLP197 T00331028
KOMA 221452Z 17009KT 10SM FEW250 01/M04 A3011 RMK AO2 SLP203 T00061039 56008
KOMA 221352Z 15009KT 10SM FEW250 M02/M05 A3012 RMK AO2 SLP207 T10221050
KOMA 221252Z 16010KT 10SM FEW250 M03/M06 A3011 RMK AO2 SLP205 T10331056
KOMA 221152Z 14010KT 10SM CLR M04/M06 A3013 RMK AO2 SLP212 T10391056 10017 21039 56011
KOMA 221052Z 16009KT 10SM CLR M03/M06 A3014 RMK AO2 SLP213 T10331056
KOMA 220952Z 17009KT 10SM CLR M01/M04 A3014 RMK AO2 SLP211 T10061044
KOMA 220852Z 14009KT 10SM CLR M02/M05 A3017 RMK AO2 SLP222 T10221050 56017
KOMA 220752Z 14007KT 10SM CLR M01/M04 A3018 RMK AO2 SLP227 T10111044
KOMA 220652Z 17008KT 10SM CLR 01/M04 A3019 RMK AO2 SLP229 T00111039
KOMA 220552Z 18009KT 10SM CLR 02/M04 A3022 RMK AO2 SLP239 T00171039 10083 20017 401001089 58007
KOMA 220452Z 19009KT 10SM CLR 03/M03 A3023 RMK AO2 SLP244 T00281033
KOMA 220352Z 18010G19KT 10SM CLR 04/M03 A3024 RMK AO2 SLP247 T00391033
KOMA 220252Z 19011KT 10SM CLR 04/M03 A3024 RMK AO2 SLP248 T00441033 53002
KOMA 220152Z 18011KT 10SM CLR 05/M03 A3024 RMK AO2 SLP249 T00501033
KOMA 220052Z 18013KT 10SM CLR 06/M03 A3023 RMK AO2 SLP248 T00611033
KOMA 212352Z 19012G20KT 10SM CLR 08/M04 A3023 RMK AO2 SLP246 T00831039 10100 20056 55014
KOMA 212252Z 20014G23KT 10SM CLR 09/M04 A3023 RMK AO2 PK WND 19028/2153 SLP245 T00941039
KOMA 212152Z 19018G25KT 10SM CLR 10/M04 A3024 RMK AO2 SLP249 T01001039
KOMA 212052Z 19019G26KT 10SM CLR 09/M04 A3027 RMK AO2 PK WND 22026/2039 SLP261 T00941039 58038
KOMA 211952Z 20014G23KT 10SM FEW250 08/M04 A3031 RMK AO2 PK WND 20026/1920 SLP274 T00831039
KOMA 211852Z 21015G24KT 10SM FEW250 07/M04 A3036 RMK AO2 PK WND 18030/1820 SLP291 T00721044
KOMA 211752Z 20015G26KT 10SM CLR 06/M06 A3039 RMK AO2 PK WND 20027/1653 SLP302 T00561056 10056 21078 58029
KOMA 211652Z 19015G23KT 10SM CLR 02/M06 A3042 RMK AO2 PK WND 19026/1612 SLP315 T00221056
KOMA 211552Z 20016G24KT 10SM CLR 00/M06 A3045 RMK AO2 SLP324 T00001061
KOMA 211452Z 19012G18KT 10SM CLR M03/M08 A3048 RMK AO2 SLP335 T10281078 56010
KOMA 211352Z 16009KT 10SM CLR M06/M09 A3048 RMK AO2 SLP335 T10611089
KOMA 211252Z 15010KT 10SM CLR M07/M10 A3049 RMK AO2 SLP340 T10721100
KOMA 211152Z 17009KT 10SM CLR M07/M09 A3051 RMK AO2 SLP346 T10671094 11067 21089 56023
KOMA 211052Z 15009KT 10SM CLR M08/M11 A3053 RMK AO2 SLP353 T10831106
KOMA 210952Z 15009KT 10SM CLR M09/M11 A3055 RMK AO2 SLP360 T10891111
KOMA 210852Z 16008KT 10SM CLR M08/M11 A3058 RMK AO2 SLP371 T10831106 58021
KOMA 210752Z 15007KT 10SM CLR M08/M11 A3061 RMK AO2 SLP381 T10781106
KOMA 210652Z 16007KT 10SM CLR M07/M10 A3063 RMK AO2 SLP388 T10721100
KOMA 210552Z 16007KT 10SM CLR M08/M10 A3064 RMK AO2 SLP393 T10781100 11022 21078 410171156 58011
KOMA 210452Z 16007KT 10SM CLR M06/M09 A3066 RMK AO2 SLP398 T10611094
KOMA 210352Z 16007KT 10SM CLR M06/M10 A3066 RMK AO2 SLP402 T10611100
KOMA 210252Z 17005KT 10SM CLR M07/M11 A3068 RMK AO2 SLP408 T10671106 58004